Terminal Aerodrome Forecast
Issued by NWS Sterling, VA

Home | Current Version | Previous Version | Text Only | Print | Product List | Glossary On
Versions: 1 2 3 4 5 6 7 8 9 10 11 12 13 14 15 16 17 18 19 20 21 22 23 24 25
588
FTUS41 KLWX 071720
TAFBWI
TAF
KBWI 071720Z 0718/0824 31009G18KT P6SM SCT028 BKN140
     FM072200 31007KT P6SM FEW200
     FM080900 00000KT P6SM BKN030
     FM081500 27008G16KT P6SM BKN100=

USA.gov is the U.S. government's official web portal to all federal, state and local government web resources and services.